createdAt,value
2022-09-05T00:00:01.967Z,1.90
2022-09-05T00:02:52.758Z,2.00
2022-09-05T00:05:35.174Z,1.95
2022-09-05T00:08:17.237Z,3.00
2022-09-05T00:11:40.511Z,2.40
2022-09-05T00:15:15.395Z,1.95
2022-09-05T00:17:35.611Z,2.25
2022-09-05T00:24:20.307Z,2.20
2022-09-05T00:24:27.843Z,2.33
2022-09-05T00:27:06.599Z,2.10
2022-09-05T00:30:40.619Z,2.17
2022-09-05T00:32:56.349Z,2.30
2022-09-05T00:35:25.939Z,2.58
2022-09-05T00:37:53.770Z,2.92
2022-09-05T00:40:44.812Z,2.27
2022-09-05T00:43:18.578Z,2.40
2022-09-05T00:45:45.166Z,2.75
2022-09-05T00:48:35.052Z,3.00
2022-09-05T00:51:01.660Z,2.83
2022-09-05T00:53:38.919Z,2.67
2022-09-05T00:56:27.796Z,2.55
2022-09-05T00:59:14.614Z,2.75
2022-09-05T01:01:58.872Z,2.60
2022-09-05T01:04:45.595Z,3.60
2022-09-05T01:07:42.812Z,3.10
2022-09-05T01:10:33.611Z,2.58
2022-09-05T01:13:20.249Z,3.10
2022-09-05T01:15:57.120Z,3.15
2022-09-05T01:18:47.180Z,3.42
2022-09-05T01:21:19.619Z,3.80
2022-09-05T01:24:01.054Z,3.53
2022-09-05T01:27:05.234Z,3.17
2022-09-05T01:29:50.497Z,3.20
2022-09-05T01:32:21.594Z,4.10
2022-09-05T01:35:03.410Z,3.57
2022-09-05T01:38:21.402Z,3.63
2022-09-05T01:41:18.791Z,3.67
2022-09-05T01:44:12.586Z,3.90
2022-09-05T01:47:29.298Z,4.03
2022-09-05T01:50:32.915Z,3.63
2022-09-05T01:53:08.459Z,3.90
2022-09-05T01:56:04.836Z,4.38
2022-09-05T01:59:06.327Z,4.05
2022-09-05T02:01:55.494Z,3.92
2022-09-05T02:04:55.966Z,4.00
2022-09-05T02:08:00.432Z,5.72
2022-09-05T02:10:51.708Z,4.10
2022-09-05T02:13:33.858Z,4.38
2022-09-05T02:16:06.079Z,4.53
2022-09-05T02:18:54.302Z,4.60
2022-09-05T02:21:33.645Z,4.10
2022-09-05T02:24:23.043Z,4.93
2022-09-05T02:27:04.690Z,4.32
2022-09-05T02:29:46.505Z,3.88
2022-09-05T02:32:30.654Z,4.43
2022-09-05T02:35:46.038Z,4.47
2022-09-05T02:41:20.304Z,4.72
2022-09-05T02:45:13.411Z,5.13
2022-09-05T02:45:25.539Z,4.70
2022-09-05T02:48:15.647Z,4.37
2022-09-05T02:54:07.895Z,5.22
2022-09-05T02:57:37.040Z,4.63
2022-09-05T02:57:37.969Z,4.60
2022-09-05T02:59:59.204Z,5.03
2022-09-05T03:02:39.383Z,5.00
2022-09-05T03:05:08.747Z,4.88
2022-09-05T03:08:03.163Z,5.13
2022-09-05T03:10:58.898Z,5.20
2022-09-05T03:13:48.883Z,4.82
2022-09-05T03:16:47.291Z,5.07
2022-09-05T03:20:07.066Z,5.43
2022-09-05T03:23:17.759Z,5.53
2022-09-05T03:26:15.266Z,5.55
2022-09-05T03:29:17.880Z,6.05
2022-09-05T03:32:03.001Z,5.30
2022-09-05T03:34:35.676Z,5.20
2022-09-05T03:37:33.695Z,5.32
2022-09-05T03:40:36.585Z,5.45
2022-09-05T03:43:52.354Z,6.30
2022-09-05T03:46:46.328Z,5.20
2022-09-05T03:52:44.427Z,5.40
2022-09-05T03:57:12.144Z,5.80
2022-09-05T03:57:17.487Z,4.97
2022-09-05T03:58:57.187Z,5.53
2022-09-05T04:02:04.795Z,5.17
2022-09-05T04:08:18.855Z,5.15
2022-09-05T04:08:19.554Z,4.65
2022-09-05T04:10:24.311Z,5.65
2022-09-05T04:13:01.638Z,4.50
2022-09-05T04:15:43.569Z,4.97
2022-09-05T04:18:32.651Z,5.07
2022-09-05T04:21:15.632Z,4.53
2022-09-05T04:24:10.159Z,4.43
2022-09-05T04:26:59.624Z,5.97
2022-09-05T04:29:47.691Z,4.70
2022-09-05T04:32:36.853Z,5.13
2022-09-05T04:35:03.900Z,4.97
2022-09-05T04:37:52.179Z,5.13
2022-09-05T04:40:33.885Z,5.53
2022-09-05T04:43:06.779Z,4.83
2022-09-05T04:46:29.015Z,4.88
2022-09-05T04:49:16.546Z,5.18
2022-09-05T04:52:02.254Z,5.03
2022-09-05T04:54:46.097Z,5.03
2022-09-05T04:57:21.822Z,5.47
2022-09-05T05:04:05.255Z,4.80
2022-09-05T05:06:09.418Z,5.68
2022-09-05T05:06:14.283Z,5.20
2022-09-05T05:09:00.827Z,4.57
2022-09-05T05:17:55.746Z,5.03
2022-09-05T05:18:12.789Z,5.53
2022-09-05T05:18:39.577Z,4.88
2022-09-05T05:21:18.993Z,5.40
2022-09-05T05:23:48.422Z,5.13
2022-09-05T05:26:31.815Z,4.77
2022-09-05T05:29:21.707Z,5.03
2022-09-05T05:31:58.643Z,5.00
2022-09-05T05:34:36.017Z,5.18
2022-09-05T05:37:32.518Z,5.38
2022-09-05T05:40:22.182Z,4.80
2022-09-05T05:42:49.065Z,4.72
2022-09-05T05:45:28.624Z,5.47
2022-09-05T05:48:03.352Z,5.13
2022-09-05T05:50:36.493Z,4.95
2022-09-05T05:53:34.916Z,5.00
2022-09-05T05:56:13.805Z,4.80
2022-09-05T05:58:58.793Z,4.85
2022-09-05T06:02:04.413Z,5.20
2022-09-05T06:04:55.415Z,4.97
2022-09-05T06:08:33.877Z,5.23
2022-09-05T06:14:55.645Z,4.68
2022-09-05T06:14:56.180Z,4.38
2022-09-05T06:16:46.320Z,4.60
2022-09-05T06:20:45.859Z,4.45
2022-09-05T06:22:52.100Z,4.57
2022-09-05T06:25:40.570Z,4.65
2022-09-05T06:28:18.501Z,4.78
2022-09-05T06:31:24.623Z,4.03
2022-09-05T06:34:33.192Z,4.40
2022-09-05T06:37:24.782Z,4.67
2022-09-05T06:40:12.027Z,4.43
2022-09-05T06:42:44.850Z,4.25
2022-09-05T06:45:27.301Z,4.57
2022-09-05T06:48:35.258Z,4.43
2022-09-05T06:51:32.046Z,4.20
2022-09-05T06:54:36.269Z,4.05
2022-09-05T06:57:40.012Z,4.15
2022-09-05T07:00:33.786Z,4.18
2022-09-05T07:03:22.819Z,4.75
2022-09-05T07:05:56.719Z,4.23
2022-09-05T07:08:35.094Z,3.70
2022-09-05T07:11:23.809Z,4.05
2022-09-05T07:14:05.153Z,3.88
2022-09-05T07:16:47.586Z,3.35
2022-09-05T07:19:18.214Z,3.40
2022-09-05T07:22:46.062Z,3.40
2022-09-05T07:25:11.725Z,4.53
2022-09-05T07:28:27.055Z,3.83
2022-09-05T07:31:14.760Z,3.25
2022-09-05T07:34:22.861Z,3.00
2022-09-05T07:37:14.090Z,2.40
2022-09-05T07:39:50.612Z,3.05
2022-09-05T07:42:26.439Z,2.47
2022-09-05T07:44:57.846Z,3.20
2022-09-05T07:47:33.176Z,2.50
2022-09-05T07:51:30.069Z,2.67
2022-09-05T07:56:51.145Z,2.72
2022-09-05T07:57:08.982Z,2.65
2022-09-05T07:58:41.874Z,3.55
2022-09-05T08:01:14.552Z,2.40
2022-09-05T08:03:57.313Z,2.40
2022-09-05T08:07:34.732Z,2.40
2022-09-05T08:10:05.323Z,2.58
2022-09-05T08:12:16.191Z,3.05
2022-09-05T08:14:49.466Z,2.40
2022-09-05T08:17:21.224Z,3.03
2022-09-05T08:20:20.762Z,2.83
2022-09-05T08:23:03.745Z,2.25
2022-09-05T08:25:56.847Z,2.13
2022-09-05T08:28:52.825Z,2.00
2022-09-05T08:31:29.451Z,1.85
2022-09-05T08:34:00.336Z,1.93
2022-09-05T08:36:36.277Z,2.45
2022-09-05T08:39:06.125Z,2.10
2022-09-05T08:42:05.552Z,1.85
2022-09-05T08:46:40.902Z,2.30
2022-09-05T08:47:48.515Z,2.00
2022-09-05T08:50:44.179Z,2.47
2022-09-05T08:53:46.169Z,2.20
2022-09-05T08:56:23.963Z,1.95
2022-09-05T08:59:28.448Z,2.10
2022-09-05T09:02:47.256Z,1.93
2022-09-05T09:06:12.230Z,2.08
2022-09-05T09:08:27.678Z,1.67
2022-09-05T09:11:16.752Z,1.67
2022-09-05T09:14:31.157Z,2.58
2022-09-05T09:17:24.705Z,1.77
2022-09-05T09:19:58.342Z,1.90
2022-09-05T09:22:43.057Z,2.03
2022-09-05T09:25:34.094Z,1.83
2022-09-05T09:28:49.894Z,1.60
2022-09-05T09:31:53.131Z,1.87
2022-09-05T09:34:25.639Z,1.90
2022-09-05T09:37:04.234Z,2.33
2022-09-05T09:39:38.359Z,1.50
2022-09-05T09:42:34.160Z,1.85
2022-09-05T09:45:28.654Z,1.73
2022-09-05T09:48:19.755Z,1.45
2022-09-05T09:51:10.979Z,1.40
2022-09-05T09:53:57.998Z,1.63
2022-09-05T09:56:43.451Z,2.00
2022-09-05T09:59:31.889Z,1.53
2022-09-05T10:04:54.293Z,1.67
2022-09-05T10:10:33.833Z,1.70
2022-09-05T10:10:55.577Z,1.83
2022-09-05T10:12:09.067Z,1.80
2022-09-05T10:14:58.393Z,1.60
2022-09-05T10:17:38.886Z,2.10
2022-09-05T10:20:38.197Z,1.50
2022-09-05T10:23:25.207Z,1.63
2022-09-05T10:26:10.607Z,1.50
2022-09-05T10:28:40.301Z,1.53
2022-09-05T10:33:45.497Z,1.40
2022-09-05T10:35:16.835Z,1.73
2022-09-05T10:37:11.040Z,1.30
2022-09-05T10:39:41.867Z,1.40
2022-09-05T10:42:17.886Z,1.33
2022-09-05T10:44:58.090Z,1.60
2022-09-05T10:47:42.721Z,1.58
2022-09-05T10:50:28.355Z,1.60
2022-09-05T10:53:20.408Z,1.55
2022-09-05T10:56:08.554Z,1.30
2022-09-05T10:59:33.122Z,1.52
2022-09-05T11:02:27.827Z,1.50
2022-09-05T11:05:08.558Z,1.50
2022-09-05T11:08:12.989Z,1.33
2022-09-05T11:10:57.991Z,1.83
2022-09-05T11:13:36.507Z,1.70
2022-09-05T11:16:37.288Z,1.77
2022-09-05T11:19:07.386Z,1.40
2022-09-05T11:22:03.981Z,1.40
2022-09-05T11:24:49.066Z,1.40
2022-09-05T11:27:43.681Z,1.58
2022-09-05T11:30:30.253Z,1.67
2022-09-05T11:36:56.777Z,1.85
2022-09-05T11:39:52.306Z,1.67
2022-09-05T11:39:55.849Z,2.20
2022-09-05T11:42:17.013Z,1.50
2022-09-05T11:45:13.908Z,1.40
2022-09-05T11:47:58.764Z,1.27
2022-09-05T11:50:37.614Z,1.55
2022-09-05T11:53:38.013Z,1.60
2022-09-05T11:56:39.650Z,1.60
2022-09-05T11:59:32.975Z,1.52
2022-09-05T12:02:08.242Z,1.90
2022-09-05T12:05:48.701Z,1.70
2022-09-05T12:08:06.378Z,1.60
2022-09-05T12:11:06.301Z,1.40
2022-09-05T12:14:21.228Z,1.48
2022-09-05T12:17:10.037Z,1.58
2022-09-05T12:20:06.422Z,1.98
2022-09-05T12:22:56.848Z,1.50
2022-09-05T12:27:42.630Z,1.73
2022-09-05T12:29:34.817Z,1.40
2022-09-05T12:32:40.099Z,1.52
2022-09-05T12:36:12.297Z,1.65
2022-09-05T12:40:44.620Z,1.53
2022-09-05T12:41:42.623Z,1.50
2022-09-05T12:44:37.740Z,1.65
2022-09-05T12:46:57.794Z,1.50
2022-09-05T12:49:38.698Z,2.15
2022-09-05T12:52:35.584Z,1.80
2022-09-05T12:55:17.358Z,1.50
2022-09-05T13:02:07.899Z,2.28
2022-09-05T13:03:12.132Z,1.90
2022-09-05T13:03:34.336Z,1.70
2022-09-05T13:06:19.496Z,1.60
2022-09-05T13:09:07.066Z,1.73
2022-09-05T13:14:54.535Z,1.45
2022-09-05T13:14:58.077Z,1.70
2022-09-05T13:17:44.687Z,1.77
2022-09-05T13:20:35.449Z,1.50
2022-09-05T13:23:26.340Z,1.50
2022-09-05T13:26:21.601Z,1.83
2022-09-05T13:29:10.739Z,1.40
2022-09-05T13:38:04.070Z,1.88
2022-09-05T13:38:05.802Z,1.50
2022-09-05T13:38:12.701Z,2.10
2022-09-05T13:40:48.369Z,1.70
2022-09-05T13:43:29.794Z,2.10
2022-09-05T13:46:10.860Z,2.00
2022-09-05T13:51:45.617Z,1.60
2022-09-05T13:54:36.418Z,1.83
2022-09-05T13:57:03.337Z,2.10
2022-09-05T13:59:40.359Z,2.03
2022-09-05T14:02:27.828Z,2.17
2022-09-05T14:05:06.496Z,1.90
2022-09-05T14:07:44.897Z,2.10
2022-09-05T14:10:56.122Z,3.83
2022-09-05T14:13:47.462Z,2.05
2022-09-05T14:16:25.280Z,3.37
2022-09-05T14:19:11.699Z,1.80
2022-09-05T14:21:41.535Z,1.80
2022-09-05T14:24:28.007Z,2.03
2022-09-05T14:26:58.853Z,1.80
2022-09-05T14:29:33.127Z,2.20
2022-09-05T14:37:35.409Z,2.10
2022-09-05T14:37:50.670Z,2.33
2022-09-05T14:38:22.463Z,2.15
2022-09-05T14:41:35.157Z,6.47
2022-09-05T14:44:10.750Z,2.00
2022-09-05T14:47:02.180Z,2.25
2022-09-05T14:49:41.660Z,1.92
2022-09-05T14:52:30.145Z,3.22
2022-09-05T15:02:42.157Z,2.23
2022-09-05T15:03:00.848Z,1.58
2022-09-05T15:06:36.868Z,1.88
2022-09-05T15:11:25.290Z,1.95
2022-09-05T15:12:22.903Z,1.80
2022-09-05T15:15:04.637Z,1.73
2022-09-05T15:17:31.546Z,1.42
2022-09-05T15:20:05.295Z,1.80
2022-09-05T15:22:36.368Z,1.77
2022-09-05T15:25:16.568Z,1.20
2022-09-05T15:27:46.204Z,1.85
2022-09-05T15:30:35.440Z,1.65
2022-09-05T15:33:28.399Z,1.83
2022-09-05T15:35:56.257Z,2.15
2022-09-05T15:38:56.225Z,1.50
2022-09-05T15:41:26.449Z,1.80
2022-09-05T15:44:12.196Z,1.85
2022-09-05T15:47:01.724Z,1.80
2022-09-05T15:49:49.641Z,1.80
2022-09-05T15:52:16.159Z,1.60
2022-09-05T15:55:13.976Z,1.77
2022-09-05T15:57:55.150Z,2.20
2022-09-05T16:00:33.669Z,2.75
2022-09-05T16:03:55.295Z,3.22
2022-09-05T16:10:37.063Z,2.07
2022-09-05T16:10:42.870Z,2.10
2022-09-05T16:12:17.203Z,1.70
2022-09-05T16:14:49.953Z,2.13
2022-09-05T16:23:12.238Z,2.00
2022-09-05T16:23:34.269Z,1.37
2022-09-05T16:24:04.205Z,1.58
2022-09-05T16:26:44.255Z,1.40
2022-09-05T16:29:26.125Z,2.17
2022-09-05T16:32:06.855Z,1.80
2022-09-05T16:34:54.224Z,1.50
2022-09-05T16:37:30.382Z,1.35
2022-09-05T16:40:04.079Z,1.30
2022-09-05T16:42:46.962Z,1.50
2022-09-05T16:45:14.213Z,1.48
2022-09-05T16:48:29.021Z,1.43
2022-09-05T16:51:15.382Z,1.70
2022-09-05T16:53:58.956Z,1.52
2022-09-05T16:57:03.269Z,1.60
2022-09-05T16:59:33.224Z,1.80
2022-09-05T17:02:10.701Z,2.20
2022-09-05T17:04:43.314Z,1.88
2022-09-05T17:08:02.290Z,1.52
2022-09-05T17:10:58.143Z,1.48
2022-09-05T17:14:07.488Z,1.58
2022-09-05T17:16:45.166Z,1.97
2022-09-05T17:19:22.277Z,2.08
2022-09-05T17:29:16.321Z,1.85
2022-09-05T17:29:27.604Z,2.10
2022-09-05T17:29:38.203Z,1.73
2022-09-05T17:31:56.144Z,1.77
2022-09-05T17:35:17.961Z,1.55
2022-09-05T17:38:11.423Z,1.88
2022-09-05T17:41:14.123Z,1.60
2022-09-05T17:43:41.762Z,2.00
2022-09-05T17:46:25.626Z,1.63
2022-09-05T17:49:16.237Z,1.98
2022-09-05T17:51:51.000Z,1.33
2022-09-05T17:54:30.901Z,1.95
2022-09-05T17:57:29.299Z,1.42
2022-09-05T18:00:11.277Z,1.60
2022-09-05T18:02:56.767Z,1.10
2022-09-05T18:05:54.559Z,1.10
2022-09-05T18:08:46.216Z,1.40
2022-09-05T18:11:25.763Z,1.30
2022-09-05T18:14:01.350Z,1.17
2022-09-05T18:17:35.841Z,1.10
2022-09-05T18:19:34.012Z,0.90
2022-09-05T18:22:12.141Z,1.40
2022-09-05T18:28:05.014Z,1.10
2022-09-05T18:33:55.809Z,1.15
2022-09-05T18:35:57.861Z,1.10
2022-09-05T18:38:51.452Z,1.30
2022-09-05T18:41:24.791Z,1.23
2022-09-05T18:44:13.596Z,1.77
2022-09-05T18:46:52.852Z,1.33
2022-09-05T18:50:24.102Z,1.52
2022-09-05T18:52:27.835Z,1.90
2022-09-05T18:56:12.489Z,1.70
2022-09-05T18:58:13.268Z,1.75
2022-09-05T19:00:46.954Z,2.15
2022-09-05T19:03:30.336Z,1.65
2022-09-05T19:06:36.716Z,1.70
2022-09-05T19:08:57.624Z,1.70
2022-09-05T19:11:29.376Z,2.38
2022-09-05T19:14:26.660Z,2.00
2022-09-05T19:16:48.492Z,2.30
2022-09-05T19:19:19.403Z,1.73
2022-09-05T19:22:16.239Z,1.60
2022-09-05T19:24:45.603Z,1.42
2022-09-05T19:28:09.637Z,1.70
2022-09-05T19:36:51.929Z,1.50
2022-09-05T19:36:56.312Z,1.35
2022-09-05T19:37:23.985Z,1.77
2022-09-05T19:38:24.786Z,1.55
2022-09-05T19:47:27.603Z,1.75
2022-09-05T19:47:39.634Z,2.38
2022-09-05T19:47:55.653Z,1.58
2022-09-05T19:49:40.284Z,2.10
2022-09-05T19:52:17.283Z,2.13
2022-09-05T19:54:51.061Z,2.60
2022-09-05T19:57:20.107Z,2.70
2022-09-05T19:59:53.806Z,3.45
2022-09-05T20:02:41.550Z,3.90
2022-09-05T20:05:09.261Z,4.30
2022-09-05T20:07:48.831Z,14.85
2022-09-05T20:10:33.100Z,5.97
2022-09-05T20:13:00.300Z,5.72
2022-09-05T20:15:37.106Z,4.83
2022-09-05T20:18:21.311Z,4.35
2022-09-05T20:21:02.207Z,5.57
2022-09-05T20:23:31.310Z,4.60
2022-09-05T20:25:58.780Z,4.43
2022-09-05T20:28:30.901Z,5.03
2022-09-05T20:31:08.523Z,5.85
2022-09-05T20:33:58.755Z,4.95
2022-09-05T20:43:08.521Z,4.53
2022-09-05T20:43:15.474Z,5.07
2022-09-05T20:43:22.128Z,4.85
2022-09-05T20:46:51.835Z,4.75
2022-09-05T20:54:10.295Z,4.55
2022-09-05T20:54:27.072Z,3.75
2022-09-05T20:54:41.401Z,4.35
2022-09-05T20:57:16.998Z,4.20
2022-09-05T20:59:44.666Z,4.68
2022-09-05T21:02:29.753Z,4.47
2022-09-05T21:05:20.282Z,4.30
2022-09-05T21:07:53.157Z,4.72
2022-09-05T21:10:34.217Z,4.50
2022-09-05T21:13:24.877Z,4.38
2022-09-05T21:15:53.661Z,4.95
2022-09-05T21:18:24.130Z,4.95
2022-09-05T21:21:17.318Z,5.20
2022-09-05T21:24:06.350Z,4.80
2022-09-05T21:26:46.580Z,3.92
2022-09-05T21:29:13.119Z,4.07
2022-09-05T21:31:42.797Z,4.20
2022-09-05T21:34:25.566Z,3.95
2022-09-05T21:37:06.476Z,4.13
2022-09-05T21:39:58.664Z,4.25
2022-09-05T21:44:08.492Z,3.60
2022-09-05T21:47:41.847Z,4.20
2022-09-05T21:48:08.169Z,3.63
2022-09-05T21:50:49.776Z,4.10
2022-09-05T21:56:38.661Z,3.88
2022-09-05T21:59:19.176Z,3.70
2022-09-05T21:59:33.585Z,4.28
2022-09-05T22:01:53.205Z,3.65
2022-09-05T22:04:21.155Z,2.73
2022-09-05T22:06:48.800Z,3.10
2022-09-05T22:09:17.487Z,3.10
2022-09-05T22:11:47.993Z,3.15
2022-09-05T22:14:14.566Z,3.50
2022-09-05T22:16:45.217Z,3.53
2022-09-05T22:19:21.408Z,3.28
2022-09-05T22:21:51.792Z,3.10
2022-09-05T22:24:19.073Z,2.85
2022-09-05T22:27:12.287Z,2.92
2022-09-05T22:29:36.539Z,3.10
2022-09-05T22:32:04.071Z,2.42
2022-09-05T22:34:30.882Z,2.58
2022-09-05T22:36:57.592Z,2.20
2022-09-05T22:39:37.232Z,1.63
2022-09-05T22:42:07.590Z,1.77
2022-09-05T22:44:41.432Z,1.63
2022-09-05T22:47:11.595Z,1.50
2022-09-05T22:49:38.328Z,2.10
2022-09-05T22:52:06.573Z,1.75
2022-09-05T22:54:34.061Z,1.67
2022-09-05T22:57:01.521Z,1.70
2022-09-05T22:59:28.167Z,1.88
2022-09-05T23:01:54.815Z,1.83
2022-09-05T23:04:21.522Z,2.17
2022-09-05T23:06:48.218Z,1.87
2022-09-05T23:09:14.879Z,1.90
2022-09-05T23:11:41.577Z,2.00
2022-09-05T23:14:08.297Z,2.10
2022-09-05T23:16:34.859Z,1.85
2022-09-05T23:19:01.603Z,1.80
2022-09-05T23:21:28.287Z,1.50
2022-09-05T23:23:54.906Z,1.73
2022-09-05T23:26:22.331Z,1.90
2022-09-05T23:28:49.043Z,1.77
2022-09-05T23:31:15.649Z,1.83
2022-09-05T23:33:42.462Z,1.70
2022-09-05T23:36:13.534Z,1.88
2022-09-05T23:38:42.277Z,1.60
2022-09-05T23:41:14.757Z,1.52
2022-09-05T23:43:42.007Z,1.40
2022-09-05T23:46:08.706Z,1.60
2022-09-05T23:48:35.667Z,1.95
2022-09-05T23:51:10.531Z,1.60
2022-09-05T23:53:37.106Z,1.55
2022-09-05T23:56:06.605Z,1.50
2022-09-05T23:58:33.356Z,1.88
